Shipman, Virginia
Current Conditions -  °F | °C
As of 7:35 AM on Monday 24 Nov 2014 (Local Time) from KW13 Reporting Station
Clear Clear  
Wind Chill: 55°   Ceiling: Unl
Heat Index: 55°   Visibility: 10mi
Dew Point: 51°   Wind: 7mph
Humidity: 88%   Direction: 210°SSW
Pressure: 29.67"   Gusts: NA
Location:  37.72°N, 78.84°W
Report Text: KW13 241235Z AUTO 21006KT 10SM CLR 13/11 A2967 RMK AO1 T01250105
Loading
Personal Weather Stations






























Interactive Weather Map New forecast layout! Learn more

10-Day Weather Forecast

Advertisements
Track Severe Weather on mobile